Time;durP1;ratioP1;P1;durP2;ratioP2;P2;SDS_P1;SDS_P2;PMS_P1;PMS_P2;Temp;Humidity;BMP_temperature;BMP_pressure;BME280_temperature;BME280_humidity;BME280_pressure;Samples;Min_cycle;Max_cycle;Signal;HPM_P1;HPM_P2
2023/07/21 00:02:15;;;;;;;;;;;;;;;;;;5072198;28;19966;-71
2023/07/21 00:04:42;;;;;;;;;;;;;;;;;;5076876;28;19924;-71
2023/07/21 00:07:09;;;;;;;;;;;;;;;;;;5091219;28;19969;-71
2023/07/21 00:09:36;;;;;;;;;;;;;;;;;;5092620;28;20018;-71
2023/07/21 00:12:04;;;;;;;;;;;;;;;;;;5092596;28;19977;-71
2023/07/21 00:14:31;;;;;;;;;;;;;;;;;;5091822;28;19931;-72
2023/07/21 00:16:58;;;;;;;;;;;;;;;;;;5092292;28;19983;-71
2023/07/21 00:19:25;;;;;;;;;;;;;;;;;;5092461;28;19983;-72
2023/07/21 00:21:52;;;;;;;;;;;;;;;;;;5092691;28;20455;-71
2023/07/21 00:24:20;;;;;;;;;;;;;;;;;;5092377;28;19924;-71
2023/07/21 00:26:47;;;;;;;;;;;;;;;;;;5092032;28;19928;-72
2023/07/21 00:29:14;;;;;;;;;;;;;;;;;;5092714;28;20421;-71
2023/07/21 00:31:46;;;;;;;;;;;;;;;;;;5095814;28;20074;-72
2023/07/21 00:34:13;;;;;;;;;;;;;;;;;;5097151;28;19924;-72
2023/07/21 00:36:40;;;;;;;;;;;;;;;;;;5096719;28;19979;-72
2023/07/21 00:39:09;;;;;;;;;;;;;;;;;;5096487;28;20014;-71
2023/07/21 00:41:36;;;;;;;;;;;;;;;;;;5096878;28;19983;-72
2023/07/21 00:44:06;;;;;;;;;;;;;;;;;;5096293;28;19963;-71
2023/07/21 00:46:33;;;;;;;;;;;;;;;;;;5096519;28;19994;-72
2023/07/21 00:49:00;;;;;;;;;;;;;;;;;;5095727;28;20023;-71
2023/07/21 00:51:27;;;;;;;;;;;;;;;;;;5096170;28;20303;-72
2023/07/21 00:53:55;;;;;;;;;;;;;;;;;;5096702;28;19959;-72
2023/07/21 00:56:22;;;;;;;;;;;;;;;;;;5095846;28;19928;-71
2023/07/21 00:58:49;;;;;;;;;;;;;;;;;;5094900;28;20437;-71
2023/07/21 01:01:16;;;;;;;;;;;;;;;;;;5095602;28;19975;-71
2023/07/21 01:03:43;;;;;;;;;;;;;;;;;;5096134;28;20018;-71
2023/07/21 01:06:10;;;;;;;;;;;;;;;;;;5080207;28;19967;-72
2023/07/21 01:08:37;;;;;;;;;;;;;;;;;;5075748;28;20341;-71
2023/07/21 01:11:04;;;;;;;;;;;;;;;;;;5075529;28;20007;-71
2023/07/21 01:13:31;;;;;;;;;;;;;;;;;;5075871;28;19964;-71
2023/07/21 01:15:58;;;;;;;;;;;;;;;;;;5075377;28;20443;-71
2023/07/21 01:18:25;;;;;;;;;;;;;;;;;;5075525;28;19954;-71
2023/07/21 01:20:52;;;;;;;;;;;;;;;;;;5075549;28;20007;-71
2023/07/21 01:23:19;;;;;;;;;;;;;;;;;;5092979;28;20002;-72
2023/07/21 01:25:46;;;;;;;;;;;;;;;;;;5095590;28;20015;-72
2023/07/21 01:28:13;;;;;;;;;;;;;;;;;;5096015;28;19987;-71
2023/07/21 01:30:40;;;;;;;;;;;;;;;;;;5095601;28;19945;-71
2023/07/21 01:33:08;;;;;;;;;;;;;;;;;;5095371;28;19924;-71
2023/07/21 01:35:35;;;;;;;;;;;;;;;;;;5095755;28;19974;-72
2023/07/21 01:38:02;;;;;;;;;;;;;;;;;;5095560;28;19925;-72
2023/07/21 01:40:29;;;;;;;;;;;;;;;;;;5094633;28;20391;-71
2023/07/21 01:42:56;;;;;;;;;;;;;;;;;;5094891;28;19971;-72
2023/07/21 01:45:24;;;;;;;;;;;;;;;;;;5095150;28;19924;-71
2023/07/21 01:47:56;;;;;;;;;;;;;;;;;;5095069;28;20022;-71
2023/07/21 01:50:24;;;;;;;;;;;;;;;;;;5094957;28;19924;-71
2023/07/21 01:52:50;;;;;;;;;;;;;;;;;;5094022;28;19976;-71
2023/07/21 01:55:17;;;;;;;;;;;;;;;;;;5094397;28;20401;-71
2023/07/21 01:57:45;;;;;;;;;;;;;;;;;;5074787;28;19924;-71
2023/07/21 02:00:13;;;;;;;;;;;;;;;;;;5074767;28;19931;-71
2023/07/21 02:02:40;;;;;;;;;;;;;;;;;;5074743;28;19931;-71
2023/07/21 02:05:07;;;;;;;;;;;;;;;;;;5074754;28;19925;-71
2023/07/21 02:07:34;;;;;;;;;;;;;;;;;;5075088;28;20040;-72
2023/07/21 02:10:03;;;;;;;;;;;;;;;;;;5074937;28;19971;-71
2023/07/21 02:12:30;;;;;;;;;;;;;;;;;;5074800;28;19924;-71
2023/07/21 02:14:57;;;;;;;;;;;;;;;;;;5074590;28;19928;-72
2023/07/21 02:17:24;;;;;;;;;;;;;;;;;;5074755;28;19924;-71
2023/07/21 02:19:51;;;;;;;;;;;;;;;;;;5074779;28;20011;-71
2023/07/21 02:22:18;;;;;;;;;;;;;;;;;;5073948;28;19925;-72
2023/07/21 02:24:46;;;;;;;;;;;;;;;;;;5085767;28;20020;-71
2023/07/21 02:27:13;;;;;;;;;;;;;;;;;;5089803;28;19932;-71
2023/07/21 02:29:40;;;;;;;;;;;;;;;;;;5089702;28;19928;-71
2023/07/21 02:32:07;;;;;;;;;;;;;;;;;;5082375;28;19932;-71
2023/07/21 02:34:34;;;;;;;;;;;;;;;;;;5093967;28;19930;-71
2023/07/21 02:37:01;;;;;;;;;;;;;;;;;;5093308;28;20005;-71
2023/07/21 02:39:28;;;;;;;;;;;;;;;;;;5094492;28;20371;-73
2023/07/21 02:41:56;;;;;;;;;;;;;;;;;;5093473;28;19924;-73
2023/07/21 02:44:23;;;;;;;;;;;;;;;;;;5093237;28;19924;-71
2023/07/21 02:46:50;;;;;;;;;;;;;;;;;;5091774;28;20007;-72
2023/07/21 02:49:17;;;;;;;;;;;;;;;;;;5092946;28;20019;-72
2023/07/21 02:51:44;;;;;;;;;;;;;;;;;;5094116;28;19932;-72
2023/07/21 02:54:11;;;;;;;;;;;;;;;;;;5094366;28;19931;-72
2023/07/21 02:56:38;;;;;;;;;;;;;;;;;;5093543;28;20026;-71
2023/07/21 02:59:05;;;;;;;;;;;;;;;;;;5093719;28;20027;-72
2023/07/21 03:01:32;;;;;;;;;;;;;;;;;;5093548;28;19950;-72
2023/07/21 03:03:59;;;;;;;;;;;;;;;;;;5092880;28;19931;-72
2023/07/21 03:06:30;;;;;;;;;;;;;;;;;;5093841;28;20018;-72
2023/07/21 03:08:57;;;;;;;;;;;;;;;;;;5093995;28;19989;-72
2023/07/21 03:11:24;;;;;;;;;;;;;;;;;;5093184;28;19971;-72
2023/07/21 03:13:51;;;;;;;;;;;;;;;;;;5093210;28;19959;-72
2023/07/21 03:16:18;;;;;;;;;;;;;;;;;;5093525;28;19964;-72
2023/07/21 03:18:45;;;;;;;;;;;;;;;;;;5094028;28;20291;-72
2023/07/21 03:21:12;;;;;;;;;;;;;;;;;;5091152;28;19924;-72
2023/07/21 03:23:38;;;;;;;;;;;;;;;;;;5093293;28;19978;-72
2023/07/21 03:26:06;;;;;;;;;;;;;;;;;;5094136;28;19924;-73
2023/07/21 03:28:33;;;;;;;;;;;;;;;;;;5091926;28;19924;-72
2023/07/21 03:31:00;;;;;;;;;;;;;;;;;;5086472;28;20307;-72
2023/07/21 03:33:27;;;;;;;;;;;;;;;;;;5087427;28;20363;-72
2023/07/21 03:35:54;;;;;;;;;;;;;;;;;;5090324;28;19924;-72
2023/07/21 03:38:21;;;;;;;;;;;;;;;;;;5089134;28;20405;-72
2023/07/21 03:40:48;;;;;;;;;;;;;;;;;;5091473;28;19924;-72
2023/07/21 03:43:15;;;;;;;;;;;;;;;;;;5092771;28;19967;-72
2023/07/21 03:45:42;;;;;;;;;;;;;;;;;;5093205;28;19924;-72
2023/07/21 03:48:09;;;;;;;;;;;;;;;;;;5093113;28;20442;-71
2023/07/21 03:50:36;;;;;;;;;;;;;;;;;;5093044;28;20331;-71
2023/07/21 03:53:04;;;;;;;;;;;;;;;;;;5090522;28;19963;-72
2023/07/21 03:55:31;;;;;;;;;;;;;;;;;;5090011;28;19924;-72
2023/07/21 03:57:58;;;;;;;;;;;;;;;;;;5090496;28;19935;-72
2023/07/21 04:00:25;;;;;;;;;;;;;;;;;;5090372;28;19977;-71
2023/07/21 04:02:53;;;;;;;;;;;;;;;;;;5091232;28;20010;-72
2023/07/21 04:05:20;;;;;;;;;;;;;;;;;;5092337;28;19928;-72
2023/07/21 04:07:47;;;;;;;;;;;;;;;;;;5092186;28;19928;-72
2023/07/21 04:10:14;;;;;;;;;;;;;;;;;;5090264;28;20446;-72
2023/07/21 04:12:41;;;;;;;;;;;;;;;;;;5089022;28;19928;-72
2023/07/21 04:15:08;;;;;;;;;;;;;;;;;;5091909;28;19931;-73
2023/07/21 04:17:35;;;;;;;;;;;;;;;;;;5092831;28;20018;-72
2023/07/21 04:20:04;;;;;;;;;;;;;;;;;;5092537;28;19931;-71
2023/07/21 04:22:31;;;;;;;;;;;;;;;;;;5093092;28;19924;-72
2023/07/21 04:24:58;;;;;;;;;;;;;;;;;;5092059;28;19924;-72
2023/07/21 04:27:29;;;;;;;;;;;;;;;;;;5089728;28;19970;-72
2023/07/21 04:29:55;;;;;;;;;;;;;;;;;;5091103;28;19924;-71
2023/07/21 04:32:23;;;;;;;;;;;;;;;;;;5092522;28;20028;-72
2023/07/21 04:34:50;;;;;;;;;;;;;;;;;;5092668;28;19924;-71
2023/07/21 04:37:17;;;;;;;;;;;;;;;;;;5092431;28;19986;-72
2023/07/21 04:39:44;;;;;;;;;;;;;;;;;;5091122;28;20439;-72
2023/07/21 04:42:11;;;;;;;;;;;;;;;;;;5092687;28;20005;-72
2023/07/21 04:44:38;;;;;;;;;;;;;;;;;;5092068;28;19968;-72
2023/07/21 04:47:05;;;;;;;;;;;;;;;;;;5091954;28;19959;-72
2023/07/21 04:49:32;;;;;;;;;;;;;;;;;;5092589;28;20002;-72
2023/07/21 04:52:00;;;;;;;;;;;;;;;;;;5092360;28;19924;-71
2023/07/21 04:54:27;;;;;;;;;;;;;;;;;;5091543;28;19931;-72
2023/07/21 04:56:54;;;;;;;;;;;;;;;;;;5091057;28;19986;-72
2023/07/21 04:59:21;;;;;;;;;;;;;;;;;;5092108;28;19939;-72
2023/07/21 05:01:48;;;;;;;;;;;;;;;;;;5089975;28;20444;-72
2023/07/21 05:04:16;;;;;;;;;;;;;;;;;;5091276;28;19969;-72
2023/07/21 05:06:43;;;;;;;;;;;;;;;;;;5092515;28;19924;-72
2023/07/21 05:09:10;;;;;;;;;;;;;;;;;;5092564;28;19924;-72
2023/07/21 05:11:37;;;;;;;;;;;;;;;;;;5091915;28;19935;-72
2023/07/21 05:14:04;;;;;;;;;;;;;;;;;;5092061;28;19980;-72
2023/07/21 05:16:31;;;;;;;;;;;;;;;;;;5092770;28;20463;-72
2023/07/21 05:18:58;;;;;;;;;;;;;;;;;;5095579;28;20381;-72
2023/07/21 05:21:25;;;;;;;;;;;;;;;;;;5094786;28;19924;-72
2023/07/21 05:23:52;;;;;;;;;;;;;;;;;;5095851;28;19987;-72
2023/07/21 05:26:21;;;;;;;;;;;;;;;;;;5095700;28;20454;-72
2023/07/21 05:28:49;;;;;;;;;;;;;;;;;;5087482;28;19924;-72
2023/07/21 05:31:16;;;;;;;;;;;;;;;;;;5075502;28;19955;-72
2023/07/21 05:33:43;;;;;;;;;;;;;;;;;;5075207;28;19925;-72
2023/07/21 05:36:10;;;;;;;;;;;;;;;;;;5075757;28;19994;-72
2023/07/21 05:38:37;;;;;;;;;;;;;;;;;;5094769;28;19928;-72
2023/07/21 05:41:04;;;;;;;;;;;;;;;;;;5095446;28;20330;-72
2023/07/21 05:43:31;;;;;;;;;;;;;;;;;;5093765;28;19970;-72
2023/07/21 05:45:58;;;;;;;;;;;;;;;;;;5081019;28;19936;-72
2023/07/21 05:48:25;;;;;;;;;;;;;;;;;;5095210;28;19928;-72
2023/07/21 05:50:52;;;;;;;;;;;;;;;;;;5094367;28;19930;-72
2023/07/21 05:53:20;;;;;;;;;;;;;;;;;;5094773;28;20454;-72
2023/07/21 05:55:47;;;;;;;;;;;;;;;;;;5075163;28;19932;-71
2023/07/21 05:58:14;;;;;;;;;;;;;;;;;;5074907;28;19932;-71
2023/07/21 06:00:41;;;;;;;;;;;;;;;;;;5074519;28;19924;-72
2023/07/21 06:03:08;;;;;;;;;;;;;;;;;;5084033;28;20011;-72
2023/07/21 06:05:36;;;;;;;;;;;;;;;;;;5094984;28;20387;-72
2023/07/21 06:08:03;;;;;;;;;;;;;;;;;;5094232;28;19924;-72
2023/07/21 06:10:30;;;;;;;;;;;;;;;;;;5094162;28;19978;-72
2023/07/21 06:12:57;;;;;;;;;;;;;;;;;;5094529;28;19925;-71
2023/07/21 06:15:25;;;;;;;;;;;;;;;;;;5094587;28;20402;-72
2023/07/21 06:17:52;;;;;;;;;;;;;;;;;;5094989;28;19924;-71
2023/07/21 06:20:20;;;;;;;;;;;;;;;;;;5095000;28;19975;-72
2023/07/21 06:22:48;;;;;;;;;;;;;;;;;;5094527;28;19924;-72
2023/07/21 06:25:15;;;;;;;;;;;;;;;;;;5094687;28;19924;-72
2023/07/21 06:27:44;;;;;;;;;;;;;;;;;;5093718;28;20019;-72
2023/07/21 06:30:13;;;;;;;;;;;;;;;;;;5094517;28;19935;-71
2023/07/21 06:32:41;;;;;;;;;;;;;;;;;;5094179;28;19928;-71
2023/07/21 06:35:08;;;;;;;;;;;;;;;;;;5094274;28;19928;-71
2023/07/21 06:37:35;;;;;;;;;;;;;;;;;;5094544;28;19992;-71
2023/07/21 06:40:04;;;;;;;;;;;;;;;;;;5094047;28;20006;-71
2023/07/21 06:42:31;;;;;;;;;;;;;;;;;;5094002;28;19925;-71
2023/07/21 06:44:58;;;;;;;;;;;;;;;;;;5091970;28;19928;-70
2023/07/21 06:47:25;;;;;;;;;;;;;;;;;;5093631;28;20378;-71
2023/07/21 06:49:52;;;;;;;;;;;;;;;;;;5094002;28;19970;-71
2023/07/21 06:52:19;;;;;;;;;;;;;;;;;;5093805;28;20446;-71
2023/07/21 06:54:45;;;;;;;;;;;;;;;;;;5093783;28;20355;-71
2023/07/21 06:57:12;;;;;;;;;;;;;;;;;;5093791;28;20352;-71
2023/07/21 06:59:39;;;;;;;;;;;;;;;;;;5093524;28;19928;-71
2023/07/21 07:02:06;;;;;;;;;;;;;;;;;;5086444;28;19924;-71
2023/07/21 07:04:34;;;;;;;;;;;;;;;;;;5072748;28;20003;-70
2023/07/21 07:07:01;;;;;;;;;;;;;;;;;;5073817;28;19929;-71
2023/07/21 07:09:28;;;;;;;;;;;;;;;;;;5073449;28;20458;-71
2023/07/21 07:11:55;;;;;;;;;;;;;;;;;;5073782;28;19978;-71
2023/07/21 07:14:22;;;;;;;;;;;;;;;;;;5073243;28;19975;-71
2023/07/21 07:16:49;;;;;;;;;;;;;;;;;;5072802;28;20028;-72
2023/07/21 07:19:16;;;;;;;;;;;;;;;;;;5090381;28;20477;-71
2023/07/21 07:21:42;;;;;;;;;;;;;;;;;;5093794;28;20375;-71
2023/07/21 07:24:09;;;;;;;;;;;;;;;;;;5093414;28;19924;-72
2023/07/21 07:26:36;;;;;;;;;;;;;;;;;;5089133;28;20351;-71
2023/07/21 07:29:04;;;;;;;;;;;;;;;;;;5088169;28;20020;-71
2023/07/21 07:31:31;;;;;;;;;;;;;;;;;;5081003;28;19970;-72
2023/07/21 07:33:58;;;;;;;;;;;;;;;;;;5072761;28;19925;-71
2023/07/21 07:36:25;;;;;;;;;;;;;;;;;;5083051;28;19978;-71
2023/07/21 07:38:52;;;;;;;;;;;;;;;;;;5087025;28;20018;-71
2023/07/21 07:41:20;;;;;;;;;;;;;;;;;;5093014;28;19924;-71
2023/07/21 07:43:47;;;;;;;;;;;;;;;;;;5092785;28;19978;-71
2023/07/21 07:46:14;;;;;;;;;;;;;;;;;;5093235;28;20028;-71
2023/07/21 07:48:41;;;;;;;;;;;;;;;;;;5073288;28;20363;-71
2023/07/21 07:51:08;;;;;;;;;;;;;;;;;;5072729;28;20458;-71
2023/07/21 07:53:35;;;;;;;;;;;;;;;;;;5073455;28;19978;-72
2023/07/21 07:56:02;;;;;;;;;;;;;;;;;;5072772;28;19975;-71
2023/07/21 07:58:29;;;;;;;;;;;;;;;;;;5079225;28;20011;-71
2023/07/21 08:00:56;;;;;;;;;;;;;;;;;;5091941;28;20010;-71
2023/07/21 08:03:23;;;;;;;;;;;;;;;;;;5092853;28;19928;-72
2023/07/21 08:05:50;;;;;;;;;;;;;;;;;;5092739;28;19971;-71
2023/07/21 08:08:18;;;;;;;;;;;;;;;;;;5093074;28;19975;-70
2023/07/21 08:10:45;;;;;;;;;;;;;;;;;;5092076;28;19955;-71
2023/07/21 08:13:12;;;;;;;;;;;;;;;;;;5092817;28;19924;-71
2023/07/21 08:15:39;;;;;;;;;;;;;;;;;;5092802;28;20027;-73
2023/07/21 08:18:06;;;;;;;;;;;;;;;;;;5092212;28;19971;-71
2023/07/21 08:20:33;;;;;;;;;;;;;;;;;;5092311;28;19928;-71
2023/07/21 08:23:00;;;;;;;;;;;;;;;;;;5092161;28;19931;-71
2023/07/21 08:25:27;;;;;;;;;;;;;;;;;;5092436;28;19967;-71
2023/07/21 08:27:54;;;;;;;;;;;;;;;;;;5091394;28;19940;-70
2023/07/21 08:30:21;;;;;;;;;;;;;;;;;;5090674;28;20018;-71
2023/07/21 08:32:48;;;;;;;;;;;;;;;;;;5072373;28;20378;-71
2023/07/21 08:35:15;;;;;;;;;;;;;;;;;;5086778;28;19924;-68
2023/07/21 08:37:42;;;;;;;;;;;;;;;;;;5091942;28;19924;-68
2023/07/21 08:40:09;;;;;;;;;;;;;;;;;;5092159;28;20012;-68
2023/07/21 08:42:36;;;;;;;;;;;;;;;;;;5092093;28;20406;-68
2023/07/21 08:45:04;;;;;;;;;;;;;;;;;;5091455;28;20398;-68
2023/07/21 08:47:31;;;;;;;;;;;;;;;;;;5092284;28;19931;-68
2023/07/21 08:49:58;;;;;;;;;;;;;;;;;;5092451;28;19924;-68
2023/07/21 08:52:25;;;;;;;;;;;;;;;;;;5096445;28;19963;-68
2023/07/21 08:54:53;;;;;;;;;;;;;;;;;;5096220;28;19924;-68
2023/07/21 08:57:20;;;;;;;;;;;;;;;;;;5096200;28;19924;-68
2023/07/21 08:59:49;;;;;;;;;;;;;;;;;;5096306;28;19924;-68
2023/07/21 09:02:16;;;;;;;;;;;;;;;;;;5095016;28;19925;-69
2023/07/21 09:04:43;;;;;;;;;;;;;;;;;;5096343;28;20357;-68
2023/07/21 09:07:11;;;;;;;;;;;;;;;;;;5095653;28;20385;-68
2023/07/21 09:09:38;;;;;;;;;;;;;;;;;;5096117;28;19934;-68
2023/07/21 09:12:05;;;;;;;;;;;;;;;;;;5094454;28;19962;-68
2023/07/21 09:14:32;;;;;;;;;;;;;;;;;;5095579;28;19968;-68
2023/07/21 09:16:59;;;;;;;;;;;;;;;;;;5095900;28;20026;-68
2023/07/21 09:19:26;;;;;;;;;;;;;;;;;;5077917;28;19932;-68
2023/07/21 09:21:53;;;;;;;;;;;;;;;;;;5075670;28;20070;-68
2023/07/21 09:24:20;;;;;;;;;;;;;;;;;;5088488;28;20022;-69
2023/07/21 09:26:47;;;;;;;;;;;;;;;;;;5095336;28;19931;-68
2023/07/21 09:29:13;;;;;;;;;;;;;;;;;;5095089;28;20014;-68
2023/07/21 09:31:41;;;;;;;;;;;;;;;;;;5095821;28;19970;-69
2023/07/21 09:34:09;;;;;;;;;;;;;;;;;;5093491;28;20353;-69
2023/07/21 09:36:36;;;;;;;;;;;;;;;;;;5094803;28;19931;-68
2023/07/21 09:39:03;;;;;;;;;;;;;;;;;;5095448;28;20010;-68
2023/07/21 09:41:30;;;;;;;;;;;;;;;;;;5095168;28;19924;-68
2023/07/21 09:43:58;;;;;;;;;;;;;;;;;;5095406;28;20035;-69
2023/07/21 09:46:25;;;;;;;;;;;;;;;;;;5095417;28;20014;-70
2023/07/21 09:48:52;;;;;;;;;;;;;;;;;;5094874;28;19931;-71
2023/07/21 09:51:20;;;;;;;;;;;;;;;;;;5094999;28;19928;-71
2023/07/21 09:53:48;;;;;;;;;;;;;;;;;;5095564;28;20009;-71
2023/07/21 09:56:15;;;;;;;;;;;;;;;;;;5095058;28;19925;-71
2023/07/21 09:58:42;;;;;;;;;;;;;;;;;;5095101;28;20018;-71
2023/07/21 10:01:09;;;;;;;;;;;;;;;;;;5095065;28;19928;-71
2023/07/21 10:03:36;;;;;;;;;;;;;;;;;;5094460;28;19964;-71
2023/07/21 10:06:03;;;;;;;;;;;;;;;;;;5095046;28;19931;-71
2023/07/21 10:08:31;;;;;;;;;;;;;;;;;;5093503;28;20279;-71
2023/07/21 10:10:58;;;;;;;;;;;;;;;;;;5093527;28;20166;-70
2023/07/21 10:13:25;;;;;;;;;;;;;;;;;;5092672;28;19924;-71
2023/07/21 10:15:52;;;;;;;;;;;;;;;;;;5094232;28;20365;-71
2023/07/21 10:18:19;;;;;;;;;;;;;;;;;;5094554;28;19928;-70
2023/07/21 10:20:46;;;;;;;;;;;;;;;;;;5093670;28;19935;-70
2023/07/21 10:23:13;;;;;;;;;;;;;;;;;;5092698;28;19925;-71
2023/07/21 10:25:40;;;;;;;;;;;;;;;;;;5090781;28;19925;-71
2023/07/21 10:28:07;;;;;;;;;;;;;;;;;;5094495;28;20383;-71
2023/07/21 10:30:34;;;;;;;;;;;;;;;;;;5094508;28;19955;-71
2023/07/21 10:33:01;;;;;;;;;;;;;;;;;;5094925;28;20014;-71
2023/07/21 10:35:28;;;;;;;;;;;;;;;;;;5094561;28;20023;-70
2023/07/21 10:37:55;;;;;;;;;;;;;;;;;;5094108;28;19964;-70
2023/07/21 10:40:22;;;;;;;;;;;;;;;;;;5094425;28;19964;-70
2023/07/21 10:42:49;;;;;;;;;;;;;;;;;;5093901;28;19979;-70
2023/07/21 10:45:16;;;;;;;;;;;;;;;;;;5094320;28;19931;-69
2023/07/21 10:47:43;;;;;;;;;;;;;;;;;;5093948;28;19978;-70
2023/07/21 10:50:10;;;;;;;;;;;;;;;;;;5093965;28;20014;-70
2023/07/21 10:52:37;;;;;;;;;;;;;;;;;;5094078;28;20027;-70
2023/07/21 10:55:04;;;;;;;;;;;;;;;;;;5093809;28;20358;-71
2023/07/21 10:57:31;;;;;;;;;;;;;;;;;;5093909;28;20386;-71
2023/07/21 10:59:58;;;;;;;;;;;;;;;;;;5087910;28;19990;-71
2023/07/21 11:02:26;;;;;;;;;;;;;;;;;;5088081;28;19977;-70
2023/07/21 11:04:53;;;;;;;;;;;;;;;;;;5093216;28;20344;-71
2023/07/21 11:07:20;;;;;;;;;;;;;;;;;;5093832;28;19963;-71
2023/07/21 11:09:47;;;;;;;;;;;;;;;;;;5093415;28;20026;-71
2023/07/21 11:12:14;;;;;;;;;;;;;;;;;;5092532;28;19959;-70
2023/07/21 11:14:41;;;;;;;;;;;;;;;;;;5092673;28;20045;-70
2023/07/21 11:17:08;;;;;;;;;;;;;;;;;;5092379;28;19955;-70
2023/07/21 11:19:35;;;;;;;;;;;;;;;;;;5093228;28;20467;-70
2023/07/21 11:22:02;;;;;;;;;;;;;;;;;;5091684;28;20014;-70
2023/07/21 11:24:29;;;;;;;;;;;;;;;;;;5091931;28;19959;-71
2023/07/21 11:26:57;;;;;;;;;;;;;;;;;;5092173;28;19924;-69
2023/07/21 11:29:25;;;;;;;;;;;;;;;;;;5093459;28;19928;-71
2023/07/21 11:31:52;;;;;;;;;;;;;;;;;;5092067;28;19924;-70
2023/07/21 11:34:19;;;;;;;;;;;;;;;;;;5084025;28;20027;-71
2023/07/21 11:36:47;;;;;;;;;;;;;;;;;;5079833;28;20030;-71
2023/07/21 11:39:14;;;;;;;;;;;;;;;;;;5092236;28;20279;-70
2023/07/21 11:41:41;;;;;;;;;;;;;;;;;;5093532;28;20338;-72
2023/07/21 11:44:08;;;;;;;;;;;;;;;;;;5093221;28;19999;-70
2023/07/21 11:46:35;;;;;;;;;;;;;;;;;;5093097;28;19977;-71
2023/07/21 11:49:10;;;;;;;;;;;;;;;;;;5092683;28;20007;-71
2023/07/21 11:51:37;;;;;;;;;;;;;;;;;;5092313;28;19932;-71
2023/07/21 11:54:04;;;;;;;;;;;;;;;;;;5093241;28;19924;-71
2023/07/21 11:56:31;;;;;;;;;;;;;;;;;;5092260;28;19931;-70
2023/07/21 11:58:58;;;;;;;;;;;;;;;;;;5091778;28;20015;-71
2023/07/21 12:01:25;;;;;;;;;;;;;;;;;;5092971;28;20011;-71
2023/07/21 12:03:52;;;;;;;;;;;;;;;;;;5092195;28;20018;-71
2023/07/21 12:06:19;;;;;;;;;;;;;;;;;;5091749;28;20019;-71
2023/07/21 12:08:46;;;;;;;;;;;;;;;;;;5090318;28;20341;-71
2023/07/21 12:11:13;;;;;;;;;;;;;;;;;;5092653;28;19924;-72
2023/07/21 12:13:40;;;;;;;;;;;;;;;;;;5092771;28;19960;-71
2023/07/21 12:16:07;;;;;;;;;;;;;;;;;;5092466;28;19924;-71
2023/07/21 12:18:34;;;;;;;;;;;;;;;;;;5090579;28;19935;-72
2023/07/21 12:21:01;;;;;;;;;;;;;;;;;;5090731;28;19986;-71
2023/07/21 12:23:28;;;;;;;;;;;;;;;;;;5092686;28;19924;-72
2023/07/21 12:25:55;;;;;;;;;;;;;;;;;;5093431;28;20019;-71
2023/07/21 12:28:22;;;;;;;;;;;;;;;;;;5096911;28;19935;-72
2023/07/21 12:30:49;;;;;;;;;;;;;;;;;;5096436;28;20351;-72
2023/07/21 12:33:16;;;;;;;;;;;;;;;;;;5095951;28;20347;-71
2023/07/21 12:35:44;;;;;;;;;;;;;;;;;;5095834;28;19924;-71
2023/07/21 12:38:11;;;;;;;;;;;;;;;;;;5096588;28;20390;-72
2023/07/21 12:40:39;;;;;;;;;;;;;;;;;;5096489;28;19971;-72
2023/07/21 12:43:06;;;;;;;;;;;;;;;;;;5080880;28;20031;-72
2023/07/21 12:45:33;;;;;;;;;;;;;;;;;;5089743;28;19947;-72
2023/07/21 12:48:00;;;;;;;;;;;;;;;;;;5096327;28;19931;-72
2023/07/21 12:50:27;;;;;;;;;;;;;;;;;;5094545;28;20458;-72
2023/07/21 12:52:54;;;;;;;;;;;;;;;;;;5092630;28;19924;-72
2023/07/21 12:55:21;;;;;;;;;;;;;;;;;;5096616;28;20026;-71
2023/07/21 12:57:48;;;;;;;;;;;;;;;;;;5096059;28;20027;-72
2023/07/21 13:00:16;;;;;;;;;;;;;;;;;;5095376;28;20027;-72
2023/07/21 13:02:42;;;;;;;;;;;;;;;;;;5096086;28;20378;-72
2023/07/21 13:05:11;;;;;;;;;;;;;;;;;;5095935;28;19928;-71
2023/07/21 13:07:39;;;;;;;;;;;;;;;;;;5095941;28;19924;-72
2023/07/21 13:10:06;;;;;;;;;;;;;;;;;;5094029;28;20358;-71
2023/07/21 13:12:33;;;;;;;;;;;;;;;;;;5094336;28;20023;-72
2023/07/21 13:15:00;;;;;;;;;;;;;;;;;;5095986;28;19924;-72
2023/07/21 13:17:27;;;;;;;;;;;;;;;;;;5095153;28;20340;-72
2023/07/21 13:19:54;;;;;;;;;;;;;;;;;;5095159;28;20019;-72
2023/07/21 13:22:21;;;;;;;;;;;;;;;;;;5095532;28;19924;-72
2023/07/21 13:24:48;;;;;;;;;;;;;;;;;;5095869;28;19924;-72
2023/07/21 13:27:15;;;;;;;;;;;;;;;;;;5096069;28;20022;-71
2023/07/21 13:29:42;;;;;;;;;;;;;;;;;;5095423;28;19924;-72
2023/07/21 13:32:09;;;;;;;;;;;;;;;;;;5095492;28;20023;-72
2023/07/21 13:34:36;;;;;;;;;;;;;;;;;;5094848;28;20027;-72
2023/07/21 13:37:03;;;;;;;;;;;;;;;;;;5094470;28;19924;-72
2023/07/21 13:39:30;;;;;;;;;;;;;;;;;;5094948;28;20015;-72
2023/07/21 13:41:57;;;;;;;;;;;;;;;;;;5088657;28;19991;-73
2023/07/21 13:44:24;;;;;;;;;;;;;;;;;;5094853;28;19977;-72
2023/07/21 13:46:51;;;;;;;;;;;;;;;;;;5095855;28;19924;-72
2023/07/21 13:49:19;;;;;;;;;;;;;;;;;;5093061;28;19963;-72
2023/07/21 13:51:46;;;;;;;;;;;;;;;;;;5075202;28;19975;-71
2023/07/21 13:54:13;;;;;;;;;;;;;;;;;;5078850;28;20019;-72
2023/07/21 13:56:40;;;;;;;;;;;;;;;;;;5093935;28;19928;-71
2023/07/21 13:59:07;;;;;;;;;;;;;;;;;;5094913;28;19979;-72
2023/07/21 14:01:34;;;;;;;;;;;;;;;;;;5094825;28;19965;-72
2023/07/21 14:04:01;;;;;;;;;;;;;;;;;;5094961;28;19978;-72
2023/07/21 14:06:28;;;;;;;;;;;;;;;;;;5093482;28;20359;-72
2023/07/21 14:08:55;;;;;;;;;;;;;;;;;;5086017;28;20466;-72
2023/07/21 14:11:22;;;;;;;;;;;;;;;;;;5093096;28;20003;-72
2023/07/21 14:13:49;;;;;;;;;;;;;;;;;;5094812;28;20373;-72
2023/07/21 14:16:16;;;;;;;;;;;;;;;;;;5092699;28;20007;-72
2023/07/21 14:18:43;;;;;;;;;;;;;;;;;;5094078;28;19949;-72
2023/07/21 14:21:10;;;;;;;;;;;;;;;;;;5092920;28;20386;-72
2023/07/21 14:23:37;;;;;;;;;;;;;;;;;;5094344;28;20020;-72
2023/07/21 14:26:04;;;;;;;;;;;;;;;;;;5094798;28;20315;-73
2023/07/21 14:28:31;;;;;;;;;;;;;;;;;;5094619;28;19924;-72
2023/07/21 14:30:58;;;;;;;;;;;;;;;;;;5094342;28;19954;-72
2023/07/21 14:33:25;;;;;;;;;;;;;;;;;;5094495;28;20023;-72
2023/07/21 14:35:52;;;;;;;;;;;;;;;;;;5077157;28;20011;-72
2023/07/21 14:38:20;;;;;;;;;;;;;;;;;;5091569;28;20343;-72
2023/07/21 14:40:47;;;;;;;;;;;;;;;;;;5092964;28;20302;-72
2023/07/21 14:43:14;;;;;;;;;;;;;;;;;;5094200;28;20302;-72
2023/07/21 14:45:41;;;;;;;;;;;;;;;;;;5094299;28;19970;-73
2023/07/21 14:48:08;;;;;;;;;;;;;;;;;;5094193;28;20010;-73
2023/07/21 14:50:35;;;;;;;;;;;;;;;;;;5094543;28;20019;-72
2023/07/21 14:53:02;;;;;;;;;;;;;;;;;;5094363;28;19971;-72
2023/07/21 14:55:29;;;;;;;;;;;;;;;;;;5094389;28;20375;-72
2023/07/21 14:57:56;;;;;;;;;;;;;;;;;;5093370;28;20446;-72
2023/07/21 15:00:23;;;;;;;;;;;;;;;;;;5094114;28;20037;-72
2023/07/21 15:02:50;;;;;;;;;;;;;;;;;;5094276;28;20011;-72
2023/07/21 15:05:17;;;;;;;;;;;;;;;;;;5094049;28;19971;-72
2023/07/21 15:07:44;;;;;;;;;;;;;;;;;;5093721;28;19924;-72
2023/07/21 15:10:11;;;;;;;;;;;;;;;;;;5093281;28;19985;-72
2023/07/21 15:12:38;;;;;;;;;;;;;;;;;;5092191;28;20010;-72
2023/07/21 15:15:05;;;;;;;;;;;;;;;;;;5091459;28;20001;-72
2023/07/21 15:17:32;;;;;;;;;;;;;;;;;;5091878;28;20015;-73
2023/07/21 15:19:58;;;;;;;;;;;;;;;;;;5093418;28;20031;-72
2023/07/21 15:22:25;;;;;;;;;;;;;;;;;;5092249;28;19970;-72
2023/07/21 15:24:52;;;;;;;;;;;;;;;;;;5093119;28;19954;-72
2023/07/21 15:27:19;;;;;;;;;;;;;;;;;;5093414;28;20437;-72
2023/07/21 15:29:46;;;;;;;;;;;;;;;;;;5093396;28;20007;-72
2023/07/21 15:32:13;;;;;;;;;;;;;;;;;;5093070;28;19994;-72
2023/07/21 15:34:40;;;;;;;;;;;;;;;;;;5093477;28;20026;-72
2023/07/21 15:37:07;;;;;;;;;;;;;;;;;;5083895;28;19975;-72
2023/07/21 15:39:34;;;;;;;;;;;;;;;;;;5072954;28;19978;-71
2023/07/21 15:42:01;;;;;;;;;;;;;;;;;;5072658;28;20398;-71
2023/07/21 15:44:28;;;;;;;;;;;;;;;;;;5072528;28;20019;-72
2023/07/21 15:46:55;;;;;;;;;;;;;;;;;;5072549;28;20447;-72
2023/07/21 15:49:22;;;;;;;;;;;;;;;;;;5081383;28;19946;-72
2023/07/21 15:51:49;;;;;;;;;;;;;;;;;;5089990;28;20003;-72
2023/07/21 15:54:16;;;;;;;;;;;;;;;;;;5093161;28;20379;-71
2023/07/21 15:56:43;;;;;;;;;;;;;;;;;;5087732;28;19925;-72
2023/07/21 15:59:10;;;;;;;;;;;;;;;;;;5083512;28;19924;-72
2023/07/21 16:01:37;;;;;;;;;;;;;;;;;;5071711;28;20023;-72
2023/07/21 16:04:04;;;;;;;;;;;;;;;;;;5085237;28;20339;-72
2023/07/21 16:06:31;;;;;;;;;;;;;;;;;;5090898;28;19924;-72
2023/07/21 16:08:58;;;;;;;;;;;;;;;;;;5090928;28;19924;-72
2023/07/21 16:11:25;;;;;;;;;;;;;;;;;;5092588;28;20007;-72
2023/07/21 16:13:52;;;;;;;;;;;;;;;;;;5092862;28;20006;-72
2023/07/21 16:16:19;;;;;;;;;;;;;;;;;;5091100;28;19960;-72
2023/07/21 16:18:48;;;;;;;;;;;;;;;;;;5087746;28;19983;-72
2023/07/21 16:21:15;;;;;;;;;;;;;;;;;;5086241;28;20386;-72
2023/07/21 16:23:42;;;;;;;;;;;;;;;;;;5084903;28;20358;-72
2023/07/21 16:26:09;;;;;;;;;;;;;;;;;;5091426;28;19928;-72
2023/07/21 16:28:36;;;;;;;;;;;;;;;;;;5090831;28;20011;-73
2023/07/21 16:31:03;;;;;;;;;;;;;;;;;;5092109;28;19924;-72
2023/07/21 16:33:30;;;;;;;;;;;;;;;;;;5092468;28;19924;-72
2023/07/21 16:35:57;;;;;;;;;;;;;;;;;;5092597;28;20024;-72
2023/07/21 16:38:24;;;;;;;;;;;;;;;;;;5092326;28;20023;-72
2023/07/21 16:40:51;;;;;;;;;;;;;;;;;;5091503;28;19977;-72
2023/07/21 16:43:18;;;;;;;;;;;;;;;;;;5092245;28;20019;-72
2023/07/21 16:45:45;;;;;;;;;;;;;;;;;;5092402;28;20010;-72